createdAt,value
2017-12-14T00:02:07.290Z,51
2017-12-14T00:08:25.629Z,49
2017-12-14T00:10:47.846Z,49
2017-12-14T00:15:26.378Z,48
2017-12-14T00:17:39.119Z,49
2017-12-14T00:24:44.081Z,47
2017-12-14T00:27:10.585Z,46
2017-12-14T00:32:13.341Z,50
2017-12-14T00:41:17.650Z,46
2017-12-14T00:43:37.008Z,48
2017-12-14T00:45:44.088Z,48
2017-12-14T00:47:55.107Z,50
2017-12-14T00:50:08.062Z,48
2017-12-14T00:54:19.775Z,47
2017-12-14T01:00:51.312Z,47
2017-12-14T01:05:44.020Z,46
2017-12-14T01:08:03.340Z,49
2017-12-14T01:10:23.606Z,48
2017-12-14T01:12:35.813Z,47
2017-12-14T01:15:01.995Z,48
2017-12-14T01:17:27.445Z,45
2017-12-14T01:21:44.103Z,46
2017-12-14T01:23:53.271Z,46
2017-12-14T01:26:11.667Z,48
2017-12-14T01:28:36.137Z,48
2017-12-14T01:33:06.553Z,46
2017-12-14T01:35:34.308Z,47
2017-12-14T01:37:56.606Z,48
2017-12-14T01:40:21.596Z,47
2017-12-14T01:42:49.331Z,45
2017-12-14T01:47:02.787Z,47
2017-12-14T01:49:34.151Z,46
2017-12-14T01:56:17.198Z,45
2017-12-14T02:03:25.054Z,43
2017-12-14T02:05:37.241Z,45
2017-12-14T02:07:56.883Z,46
2017-12-14T02:12:41.154Z,46
2017-12-14T02:16:55.937Z,45
2017-12-14T02:19:07.775Z,43
2017-12-14T02:25:10.478Z,46
2017-12-14T02:29:59.477Z,45
2017-12-14T02:32:12.852Z,45
2017-12-14T02:38:15.088Z,43
2017-12-14T02:40:48.444Z,46
2017-12-14T02:42:58.573Z,45
2017-12-14T02:45:23.605Z,44
2017-12-14T02:47:51.575Z,44
2017-12-14T02:50:14.644Z,42
2017-12-14T02:52:28.000Z,45
2017-12-14T02:56:48.018Z,45
2017-12-14T02:59:00.413Z,45
2017-12-14T03:01:18.734Z,44
2017-12-14T03:03:37.687Z,45
2017-12-14T03:10:00.158Z,43
2017-12-14T03:12:12.225Z,44
2017-12-14T03:16:27.352Z,45
2017-12-14T03:18:35.741Z,41
2017-12-14T03:20:41.416Z,44
2017-12-14T03:22:56.019Z,43
2017-12-14T03:25:14.883Z,41
2017-12-14T03:27:25.139Z,45
2017-12-14T03:29:37.137Z,45
2017-12-14T03:33:42.555Z,43
2017-12-14T03:35:58.923Z,41
2017-12-14T03:38:33.324Z,44
2017-12-14T03:40:50.167Z,42
2017-12-14T03:43:12.223Z,43
2017-12-14T03:47:20.528Z,43
2017-12-14T03:49:38.615Z,41
2017-12-14T03:51:57.878Z,42
2017-12-14T03:54:26.664Z,42
2017-12-14T03:56:50.738Z,39
2017-12-14T03:58:59.769Z,43
2017-12-14T04:01:23.049Z,41
2017-12-14T04:03:33.594Z,41
2017-12-14T04:06:01.954Z,43
2017-12-14T04:08:22.329Z,43
2017-12-14T04:13:14.523Z,42
2017-12-14T04:17:25.298Z,43
2017-12-14T04:23:41.553Z,41
2017-12-14T04:25:50.601Z,41
2017-12-14T04:27:57.612Z,43
2017-12-14T04:30:10.605Z,42
2017-12-14T04:34:19.931Z,41
2017-12-14T04:36:45.079Z,42
2017-12-14T04:41:35.435Z,41
2017-12-14T04:48:04.708Z,41
2017-12-14T04:54:20.898Z,41
2017-12-14T04:56:38.319Z,42
2017-12-14T04:59:13.898Z,41
2017-12-14T05:01:12.030Z,37
2017-12-14T05:03:20.407Z,40
2017-12-14T05:05:32.999Z,41
2017-12-14T05:07:50.746Z,41
2017-12-14T05:10:09.643Z,38
2017-12-14T05:12:33.280Z,40
2017-12-14T05:14:41.831Z,40
2017-12-14T05:16:48.249Z,41
2017-12-14T05:19:00.565Z,41
2017-12-14T05:21:12.647Z,39
2017-12-14T05:23:24.191Z,40
2017-12-14T05:25:48.908Z,38
2017-12-14T05:28:01.234Z,40
2017-12-14T05:30:16.446Z,40
2017-12-14T05:32:21.986Z,41
2017-12-14T05:36:59.352Z,38
2017-12-14T05:39:13.686Z,39
2017-12-14T05:41:22.226Z,41
2017-12-14T05:43:28.265Z,39
2017-12-14T05:45:37.866Z,37
2017-12-14T05:47:43.222Z,39
2017-12-14T05:49:53.011Z,41
2017-12-14T05:52:18.392Z,39
2017-12-14T05:54:40.814Z,39
2017-12-14T05:56:53.965Z,40
2017-12-14T06:01:35.788Z,39
2017-12-14T06:03:45.346Z,41
2017-12-14T06:05:57.588Z,40
2017-12-14T06:10:38.429Z,36
2017-12-14T06:12:45.671Z,39
2017-12-14T06:14:53.091Z,39
2017-12-14T06:17:00.529Z,40
2017-12-14T06:19:07.893Z,38
2017-12-14T06:21:14.418Z,39
2017-12-14T06:23:24.851Z,38
2017-12-14T06:25:31.089Z,38
2017-12-14T06:27:36.791Z,39
2017-12-14T06:29:46.552Z,37
2017-12-14T06:31:54.376Z,40
2017-12-14T06:34:03.551Z,39
2017-12-14T06:36:10.131Z,39
2017-12-14T06:40:51.330Z,39
2017-12-14T06:43:03.195Z,38
2017-12-14T06:45:10.172Z,38
2017-12-14T06:47:20.251Z,39
2017-12-14T06:49:30.447Z,37
2017-12-14T06:54:06.470Z,35
2017-12-14T06:56:13.094Z,37
2017-12-14T06:58:30.375Z,38
2017-12-14T07:01:04.511Z,39
2017-12-14T07:07:51.171Z,35
2017-12-14T07:10:08.013Z,39
2017-12-14T07:12:32.333Z,37
2017-12-14T07:17:14.850Z,36
2017-12-14T07:19:32.728Z,39
2017-12-14T07:26:50.668Z,39
2017-12-14T07:29:01.587Z,38
2017-12-14T07:31:11.449Z,37
2017-12-14T07:33:24.433Z,37
2017-12-14T07:35:45.459Z,35
2017-12-14T07:38:10.640Z,37
2017-12-14T07:40:16.788Z,36
2017-12-14T07:42:26.394Z,37
2017-12-14T07:44:40.229Z,36
2017-12-14T07:49:04.710Z,36
2017-12-14T07:51:12.092Z,36
2017-12-14T07:53:17.738Z,35
2017-12-14T07:55:23.761Z,37
2017-12-14T07:57:39.616Z,35
2017-12-14T07:59:48.924Z,38
2017-12-14T08:01:56.165Z,37
2017-12-14T08:12:48.629Z,33
2017-12-14T08:15:18.896Z,35
2017-12-14T08:20:07.473Z,36
2017-12-14T08:27:34.447Z,35
2017-12-14T08:30:13.521Z,35
2017-12-14T08:34:35.191Z,37
2017-12-14T08:36:52.573Z,35
2017-12-14T08:39:00.203Z,32
2017-12-14T08:46:15.895Z,36
2017-12-14T08:48:34.739Z,37
2017-12-14T08:53:07.229Z,34
2017-12-14T08:57:55.270Z,35
2017-12-14T09:02:47.308Z,36
2017-12-14T09:07:09.925Z,35
2017-12-14T09:13:37.961Z,35
2017-12-14T09:24:26.273Z,35
2017-12-14T09:26:47.571Z,33
2017-12-14T09:31:18.419Z,34
2017-12-14T09:33:20.490Z,34
2017-12-14T09:37:33.098Z,35
2017-12-14T09:40:06.096Z,34
2017-12-14T09:44:26.281Z,36
2017-12-14T09:51:53.158Z,34
2017-12-14T09:54:26.550Z,35
2017-12-14T09:59:37.271Z,35
2017-12-14T10:01:46.127Z,32
2017-12-14T10:04:04.389Z,32
2017-12-14T10:06:22.342Z,32
2017-12-14T10:13:04.354Z,33
2017-12-14T10:19:53.293Z,35
2017-12-14T10:22:42.337Z,35
2017-12-14T10:26:38.195Z,35
2017-12-14T10:33:16.891Z,34
2017-12-14T10:35:28.107Z,33
2017-12-14T10:37:44.979Z,34
2017-12-14T10:46:46.135Z,33
2017-12-14T10:51:17.191Z,32
2017-12-14T10:53:59.797Z,32
2017-12-14T11:04:51.491Z,32
2017-12-14T11:07:23.009Z,32
2017-12-14T11:16:06.952Z,35
2017-12-14T11:18:25.091Z,32
2017-12-14T11:22:32.012Z,34
2017-12-14T11:24:46.988Z,32
2017-12-14T11:27:01.856Z,32
2017-12-14T11:29:09.610Z,34
2017-12-14T11:31:46.210Z,34
2017-12-14T11:33:52.349Z,34
2017-12-14T11:36:00.731Z,34
2017-12-14T11:38:17.425Z,34
2017-12-14T11:42:54.690Z,29
2017-12-14T11:45:01.108Z,32
2017-12-14T11:47:16.928Z,32
2017-12-14T11:49:24.288Z,34
2017-12-14T11:51:29.851Z,33
2017-12-14T11:53:36.087Z,33
2017-12-14T11:55:41.528Z,32
2017-12-14T11:57:51.569Z,30
2017-12-14T11:59:58.644Z,31
2017-12-14T12:02:06.019Z,31
2017-12-14T12:04:12.422Z,32
2017-12-14T12:06:18.866Z,33
2017-12-14T12:08:25.437Z,31
2017-12-14T12:10:33.735Z,33
2017-12-14T12:12:44.821Z,33
2017-12-14T12:14:57.321Z,30
2017-12-14T12:17:09.559Z,32
2017-12-14T12:19:19.140Z,32
2017-12-14T12:21:31.194Z,31
2017-12-14T12:23:40.399Z,33
2017-12-14T12:25:47.264Z,32
2017-12-14T12:27:55.237Z,33
2017-12-14T12:30:02.934Z,33
2017-12-14T12:32:10.385Z,33
2017-12-14T12:34:19.724Z,30
2017-12-14T12:36:28.207Z,32
2017-12-14T12:38:37.595Z,28
2017-12-14T12:42:46.407Z,30
2017-12-14T12:44:57.759Z,31
2017-12-14T12:47:04.260Z,30
2017-12-14T12:58:16.775Z,32
2017-12-14T13:05:27.079Z,28
2017-12-14T13:07:35.319Z,32
2017-12-14T13:10:39.984Z,32
2017-12-14T13:14:11.760Z,30
2017-12-14T13:18:10.436Z,30
2017-12-14T13:20:19.337Z,30
2017-12-14T13:22:54.978Z,32
2017-12-14T13:26:15.081Z,99
2017-12-14T13:32:28.528Z,100
2017-12-14T13:36:55.808Z,99
2017-12-14T13:39:07.517Z,97
2017-12-14T13:41:17.158Z,99
2017-12-14T13:43:27.312Z,100
2017-12-14T13:45:39.630Z,99
2017-12-14T13:47:53.806Z,99
2017-12-14T13:50:05.105Z,97
2017-12-14T13:52:16.084Z,97
2017-12-14T13:54:31.331Z,100
2017-12-14T13:56:37.547Z,100
2017-12-14T13:58:46.503Z,97
2017-12-14T14:03:26.697Z,98
2017-12-14T14:05:36.914Z,99
2017-12-14T14:07:52.973Z,98
2017-12-14T14:10:05.510Z,98
2017-12-14T14:12:20.186Z,98
2017-12-14T14:14:33.464Z,99
2017-12-14T14:16:46.489Z,99
2017-12-14T14:18:56.047Z,96
2017-12-14T14:21:08.551Z,98
2017-12-14T14:23:25.450Z,96
2017-12-14T14:27:55.539Z,98
2017-12-14T14:29:56.487Z,97
2017-12-14T14:32:12.412Z,98
2017-12-14T14:34:27.730Z,95
2017-12-14T14:36:36.813Z,95
2017-12-14T14:38:58.628Z,97
2017-12-14T14:41:13.675Z,98
2017-12-14T14:43:21.607Z,95
2017-12-14T14:45:33.590Z,96
2017-12-14T14:52:39.113Z,94
2017-12-14T15:01:53.485Z,95
2017-12-14T15:06:36.932Z,92
2017-12-14T15:08:47.425Z,97
2017-12-14T15:11:04.147Z,95
2017-12-14T15:13:17.983Z,95
2017-12-14T15:15:37.972Z,97
2017-12-14T15:17:45.590Z,95
2017-12-14T15:19:56.551Z,95
2017-12-14T15:24:21.648Z,94
2017-12-14T15:26:35.088Z,96
2017-12-14T15:28:54.225Z,94
2017-12-14T15:31:07.723Z,94
2017-12-14T15:37:28.152Z,96
2017-12-14T15:39:36.307Z,95
2017-12-14T15:43:47.286Z,93
2017-12-14T15:46:07.782Z,93
2017-12-14T15:48:32.648Z,95
2017-12-14T15:50:42.975Z,95
2017-12-14T15:53:09.298Z,94
2017-12-14T15:55:28.524Z,94
2017-12-14T15:58:02.571Z,90
2017-12-14T16:00:31.551Z,92
2017-12-14T16:02:58.851Z,94
2017-12-14T16:05:14.488Z,92
2017-12-14T16:07:42.387Z,93
2017-12-14T16:09:55.774Z,93
2017-12-14T16:12:05.587Z,92
2017-12-14T16:16:52.210Z,91
2017-12-14T16:19:08.204Z,91
2017-12-14T16:21:24.902Z,92
2017-12-14T16:23:41.834Z,92
2017-12-14T16:25:50.025Z,92
2017-12-14T16:28:01.929Z,92
2017-12-14T16:30:12.247Z,92
2017-12-14T16:32:22.929Z,92
2017-12-14T16:34:49.270Z,92
2017-12-14T16:37:30.069Z,92
2017-12-14T16:39:53.716Z,92
2017-12-14T16:44:07.588Z,90
2017-12-14T16:46:23.504Z,92
2017-12-14T16:53:10.509Z,91
2017-12-14T16:57:51.982Z,90
2017-12-14T17:00:09.931Z,91
2017-12-14T17:02:19.710Z,91
2017-12-14T17:04:33.108Z,90
2017-12-14T17:06:57.105Z,91
2017-12-14T17:09:11.699Z,88
2017-12-14T17:11:26.308Z,91
2017-12-14T17:13:35.926Z,92
2017-12-14T17:15:53.148Z,90
2017-12-14T17:18:09.075Z,92
2017-12-14T17:20:22.371Z,91
2017-12-14T17:22:34.325Z,91
2017-12-14T17:24:51.172Z,90
2017-12-14T17:27:12.269Z,90
2017-12-14T17:29:33.192Z,90
2017-12-14T17:31:48.142Z,90
2017-12-14T17:34:12.968Z,90
2017-12-14T17:36:27.644Z,90
2017-12-14T17:38:48.030Z,88
2017-12-14T17:41:07.524Z,89
2017-12-14T17:43:15.590Z,90
2017-12-14T17:47:23.733Z,88
2017-12-14T17:49:39.430Z,90
2017-12-14T17:52:05.857Z,89
2017-12-14T17:54:32.169Z,89
2017-12-14T17:56:39.267Z,89
2017-12-14T17:58:59.824Z,89
2017-12-14T18:01:24.206Z,88
2017-12-14T18:03:40.068Z,89
2017-12-14T18:05:58.105Z,88
2017-12-14T18:08:35.509Z,87
2017-12-14T18:10:31.529Z,88
2017-12-14T18:12:46.007Z,90
2017-12-14T18:15:04.033Z,88
2017-12-14T18:17:20.415Z,88
2017-12-14T18:21:53.364Z,88
2017-12-14T18:24:07.226Z,88
2017-12-14T18:26:26.327Z,88
2017-12-14T18:28:46.438Z,88
2017-12-14T18:31:03.244Z,86
2017-12-14T18:33:30.990Z,89
2017-12-14T18:35:49.923Z,88
2017-12-14T18:38:01.568Z,88
2017-12-14T18:40:27.564Z,87
2017-12-14T18:42:52.268Z,88
2017-12-14T18:45:08.369Z,88
2017-12-14T18:47:21.166Z,87
2017-12-14T18:49:32.231Z,88
2017-12-14T18:55:34.283Z,85
2017-12-14T18:57:47.003Z,86
2017-12-14T18:59:59.429Z,85
2017-12-14T19:02:15.705Z,88
2017-12-14T19:04:42.451Z,87
2017-12-14T19:08:57.232Z,88
2017-12-14T19:13:09.861Z,86
2017-12-14T19:15:23.990Z,85
2017-12-14T19:17:47.553Z,86
2017-12-14T19:19:53.492Z,88
2017-12-14T19:24:01.309Z,85
2017-12-14T19:30:41.404Z,86
2017-12-14T19:33:04.452Z,85
2017-12-14T19:35:23.227Z,86
2017-12-14T19:37:38.787Z,87
2017-12-14T19:39:51.893Z,86
2017-12-14T19:42:19.085Z,85
2017-12-14T19:44:40.098Z,87
2017-12-14T19:47:03.410Z,85
2017-12-14T19:49:34.936Z,83
2017-12-14T19:51:57.862Z,87
2017-12-14T19:54:08.792Z,85
2017-12-14T19:56:23.344Z,85
2017-12-14T20:05:13.826Z,86
2017-12-14T20:09:37.525Z,84
2017-12-14T20:12:28.139Z,86
2017-12-14T20:14:50.026Z,84
2017-12-14T20:17:17.084Z,85
2017-12-14T20:21:38.230Z,85
2017-12-14T20:23:53.427Z,85
2017-12-14T20:28:53.461Z,83
2017-12-14T20:31:26.628Z,85
2017-12-14T20:33:44.407Z,83
2017-12-14T20:35:57.925Z,85
2017-12-14T20:38:14.401Z,84
2017-12-14T20:40:31.650Z,83
2017-12-14T20:42:46.710Z,82
2017-12-14T20:45:09.167Z,83
2017-12-14T20:47:23.230Z,85
2017-12-14T20:49:38.949Z,83
2017-12-14T20:52:02.104Z,84
2017-12-14T20:54:34.446Z,83
2017-12-14T20:56:58.963Z,83
2017-12-14T20:59:14.014Z,84
2017-12-14T21:01:50.628Z,83
2017-12-14T21:04:14.754Z,84
2017-12-14T21:06:32.285Z,84
2017-12-14T21:13:46.514Z,83
2017-12-14T21:25:07.044Z,83
2017-12-14T21:27:26.941Z,81
2017-12-14T21:29:47.086Z,83
2017-12-14T21:32:22.584Z,80
2017-12-14T21:34:43.564Z,82
2017-12-14T21:37:02.106Z,83
2017-12-14T21:39:07.842Z,84
2017-12-14T21:41:26.426Z,83
2017-12-14T21:43:45.368Z,84
2017-12-14T21:46:05.431Z,83
2017-12-14T21:50:27.886Z,83
2017-12-14T21:54:39.123Z,82
2017-12-14T21:56:53.053Z,82
2017-12-14T21:59:11.171Z,81
2017-12-14T22:05:58.828Z,83
2017-12-14T22:08:17.140Z,82
2017-12-14T22:10:30.165Z,81
2017-12-14T22:12:45.989Z,82
2017-12-14T22:15:24.238Z,82
2017-12-14T22:17:47.563Z,81
2017-12-14T22:19:54.695Z,83
2017-12-14T22:24:00.678Z,83
2017-12-14T22:30:32.067Z,82
2017-12-14T22:32:44.923Z,81
2017-12-14T22:34:58.767Z,82
2017-12-14T22:37:12.910Z,81
2017-12-14T22:39:23.269Z,81
2017-12-14T22:43:35.692Z,81
2017-12-14T22:45:50.867Z,79
2017-12-14T22:48:05.440Z,83
2017-12-14T22:50:16.241Z,82
2017-12-14T22:52:26.913Z,81
2017-12-14T22:54:38.068Z,81
2017-12-14T22:56:48.163Z,79
2017-12-14T22:59:03.615Z,81
2017-12-14T23:01:14.922Z,81
2017-12-14T23:03:26.924Z,80
2017-12-14T23:05:42.948Z,81
2017-12-14T23:07:59.685Z,79
2017-12-14T23:10:11.945Z,79
2017-12-14T23:12:31.974Z,81
2017-12-14T23:14:58.609Z,79
2017-12-14T23:17:11.591Z,82
2017-12-14T23:19:24.486Z,81
2017-12-14T23:21:54.508Z,80
2017-12-14T23:24:15.947Z,81
2017-12-14T23:26:46.903Z,81
2017-12-14T23:29:12.097Z,81
2017-12-14T23:31:31.288Z,79
2017-12-14T23:33:52.914Z,81
2017-12-14T23:36:09.946Z,81
2017-12-14T23:38:34.747Z,81
2017-12-14T23:40:47.408Z,80
2017-12-14T23:43:12.555Z,78
2017-12-14T23:45:30.929Z,81
2017-12-14T23:47:43.469Z,78
2017-12-14T23:50:11.872Z,81
2017-12-14T23:52:35.685Z,80
2017-12-14T23:55:06.188Z,80
2017-12-14T23:57:27.166Z,79
